LYBE/BEG METAR and TAF weather

Enter ICAO airport designator
Station Type Date Time Source
LYBE METAR 2022/10/06 20:00 UTC NOAA

LYBE 062000Z 01002KT CAVOK 13/10 Q1029 NOSIG


Station Type Date Time Source
LYBE Decoded METAR 2022/10/06 20:00 UTC NOAA

Beograd / Surcin, Serbia and Montenegro (LYBE) 44-49N 020-17E 99M
Oct 06, 2022 - 04:00 PM EDT / 2022.10.06 2000 UTC
Wind: from the N (010 degrees) at 2 MPH (2 KT):0
Visibility: greater than 7 mile(s):0
Temperature: 55 F (13 C)
Dew Point: 50 F (10 C)
Relative Humidity: 81%
Pressure (altimeter): 30.39 in. Hg (1029 hPa)
ob: LYBE 062000Z 01002KT CAVOK 13/10 Q1029 NOSIG
cycle: 20

Station Type Date Time Source
LYBE TAF 2022/10/06 18:21 UTC NOAA

TAF LYBE 061700Z 0618/0718 01004KT CAVOK TX21/0713Z TN07/0704Z
BECMG 0701/0703 3000 BR
TEMPO 0703/0706 0400 FG
BECMG 0706/0708 9999 NSW

Example: see airport list